createdAt,value
2022-10-11T00:03:09.421Z,63.15
2022-10-11T00:08:15.907Z,63.25
2022-10-11T00:13:22.306Z,63.33
2022-10-11T00:18:28.547Z,63.21
2022-10-11T00:23:35.677Z,63.37
2022-10-11T00:28:42.459Z,63.36
2022-10-11T00:33:48.878Z,63.28
2022-10-11T00:38:55.177Z,63.25
2022-10-11T00:44:15.130Z,63.12
2022-10-11T00:49:24.739Z,63.02
2022-10-11T00:54:33.157Z,63.02
2022-10-11T00:59:40.807Z,63.40
2022-10-11T01:04:47.160Z,62.99
2022-10-11T01:09:53.328Z,63.19
2022-10-11T01:15:09.226Z,63.36
2022-10-11T01:20:28.418Z,63.25
2022-10-11T01:25:38.031Z,63.10
2022-10-11T01:30:44.904Z,63.33
2022-10-11T01:35:55.686Z,63.21
2022-10-11T01:41:04.700Z,63.19
2022-10-11T01:46:11.587Z,63.29
2022-10-11T01:51:18.480Z,63.08
2022-10-11T01:56:31.312Z,63.36
2022-10-11T02:01:45.018Z,63.33
2022-10-11T02:06:57.556Z,63.34
2022-10-11T02:12:06.866Z,63.24
2022-10-11T02:17:15.518Z,62.93
2022-10-11T02:22:23.106Z,63.31
2022-10-11T02:27:30.805Z,63.10
2022-10-11T02:32:37.818Z,63.41
2022-10-11T02:37:50.638Z,63.44
2022-10-11T02:43:01.660Z,63.06
2022-10-11T02:48:08.726Z,63.04
2022-10-11T02:53:14.910Z,63.34
2022-10-11T02:58:21.170Z,63.25
2022-10-11T03:03:27.500Z,63.51
2022-10-11T03:08:33.698Z,63.23
2022-10-11T03:13:39.824Z,63.50
2022-10-11T03:18:45.920Z,63.15
2022-10-11T03:23:52.149Z,63.11
2022-10-11T03:28:58.536Z,63.33
2022-10-11T03:34:04.876Z,63.33
2022-10-11T03:39:11.252Z,63.06
2022-10-11T03:44:17.506Z,63.26
2022-10-11T03:49:23.897Z,63.15
2022-10-11T03:54:30.200Z,63.34
2022-10-11T03:59:36.466Z,63.28
2022-10-11T04:04:42.498Z,63.39
2022-10-11T04:09:48.745Z,63.38
2022-10-11T04:14:54.974Z,62.82
2022-10-11T04:20:01.258Z,63.15
2022-10-11T04:25:08.777Z,63.30
2022-10-11T04:30:15.728Z,63.23
2022-10-11T04:35:21.947Z,63.18
2022-10-11T04:40:28.145Z,62.99
2022-10-11T04:45:34.402Z,63.23
2022-10-11T04:50:40.664Z,63.21
2022-10-11T04:55:47.036Z,63.26
2022-10-11T05:00:53.227Z,63.19
2022-10-11T05:06:04.516Z,63.19
2022-10-11T05:11:15.648Z,63.15
2022-10-11T05:16:22.170Z,63.20
2022-10-11T05:21:28.875Z,63.14
2022-10-11T05:26:35.847Z,63.36
2022-10-11T05:31:42.127Z,63.16
2022-10-11T05:36:48.327Z,63.35
2022-10-11T05:41:54.496Z,63.40
2022-10-11T05:47:00.724Z,63.28
2022-10-11T05:52:09.445Z,63.29
2022-10-11T05:57:16.176Z,63.21
2022-10-11T06:02:22.421Z,63.13
2022-10-11T06:07:28.860Z,63.26
2022-10-11T06:12:35.047Z,63.40
2022-10-11T06:17:41.326Z,63.35
2022-10-11T06:22:47.511Z,63.43
2022-10-11T06:27:53.677Z,62.94
2022-10-11T06:33:04.476Z,63.16
2022-10-11T06:38:11.200Z,63.27
2022-10-11T06:43:17.307Z,62.92
2022-10-11T06:48:23.406Z,63.11
2022-10-11T06:53:29.920Z,63.03
2022-10-11T06:58:36.553Z,63.07
2022-10-11T07:03:42.988Z,63.17
2022-10-11T07:08:49.721Z,63.21
2022-10-11T07:13:56.977Z,63.21
2022-10-11T07:19:03.747Z,63.05
2022-10-11T07:24:10.336Z,63.13
2022-10-11T07:29:16.488Z,63.02
2022-10-11T07:34:23.216Z,63.04
2022-10-11T07:39:31.260Z,63.27
2022-10-11T07:44:37.910Z,62.91
2022-10-11T07:49:44.181Z,63.02
2022-10-11T07:54:51.960Z,63.35
2022-10-11T07:59:58.297Z,63.19
2022-10-11T08:05:04.797Z,63.50
2022-10-11T08:10:12.276Z,62.99
2022-10-11T08:15:19.026Z,62.98
2022-10-11T08:20:25.246Z,63.31
2022-10-11T08:25:31.517Z,63.29
2022-10-11T08:30:37.777Z,63.44
2022-10-11T08:35:43.928Z,63.32
2022-10-11T08:40:51.036Z,63.18
2022-10-11T08:45:59.007Z,63.19
2022-10-11T08:51:08.211Z,63.32
2022-10-11T08:56:15.366Z,63.26
2022-10-11T09:01:23.746Z,63.32
2022-10-11T09:06:38.386Z,63.31
2022-10-11T09:11:50.206Z,63.16
2022-10-11T09:17:03.076Z,63.13
2022-10-11T09:22:13.475Z,63.10
2022-10-11T09:27:37.831Z,63.36
2022-10-11T09:32:49.556Z,63.47
2022-10-11T09:37:59.560Z,63.47
2022-10-11T09:43:06.208Z,63.36
2022-10-11T09:48:15.746Z,63.44
2022-10-11T09:53:22.586Z,63.11
2022-10-11T09:58:30.046Z,63.28
2022-10-11T10:03:36.892Z,63.39
2022-10-11T10:08:45.926Z,63.46
2022-10-11T10:13:52.996Z,63.16
2022-10-11T10:19:00.737Z,63.19
2022-10-11T10:24:09.861Z,63.25
2022-10-11T10:29:20.486Z,63.43
2022-10-11T10:34:29.946Z,63.31
2022-10-11T10:39:39.320Z,63.16
2022-10-11T10:44:46.637Z,63.34
2022-10-11T10:49:56.636Z,63.23
2022-10-11T10:55:06.961Z,63.24
2022-10-11T11:00:16.406Z,63.49
2022-10-11T11:05:35.410Z,63.47
2022-10-11T11:10:45.516Z,63.15
2022-10-11T11:15:55.725Z,63.18
2022-10-11T11:21:12.407Z,63.22
2022-10-11T11:26:24.137Z,63.13
2022-10-11T11:31:38.617Z,63.21
2022-10-11T11:36:47.219Z,63.07
2022-10-11T11:41:55.328Z,63.17
2022-10-11T11:47:03.957Z,63.07
2022-10-11T11:52:14.656Z,62.95
2022-10-11T11:57:27.396Z,63.28
2022-10-11T12:02:40.854Z,62.82
2022-10-11T12:07:51.406Z,63.10
2022-10-11T12:13:11.129Z,63.22
2022-10-11T12:18:18.636Z,63.22
2022-10-11T12:23:50.199Z,63.02
2022-10-11T12:29:12.757Z,63.10
2022-10-11T12:34:33.771Z,63.21
2022-10-11T12:39:44.226Z,62.85
2022-10-11T12:45:03.748Z,62.92
2022-10-11T12:50:17.418Z,62.76
2022-10-11T12:55:32.037Z,62.94
2022-10-11T13:00:46.710Z,62.72
2022-10-11T13:05:59.107Z,62.84
2022-10-11T13:11:10.457Z,62.95
2022-10-11T13:16:18.191Z,62.80
2022-10-11T13:21:28.906Z,62.83
2022-10-11T13:26:35.235Z,62.76
2022-10-11T13:31:44.028Z,62.44
2022-10-11T13:36:50.490Z,62.37
2022-10-11T13:41:57.366Z,62.66
2022-10-11T13:47:04.309Z,62.68
2022-10-11T13:52:21.597Z,62.46
2022-10-11T13:57:35.124Z,62.34
2022-10-11T14:02:41.697Z,62.32
2022-10-11T14:07:49.207Z,62.36
2022-10-11T14:13:03.489Z,62.22
2022-10-11T14:18:33.460Z,62.30
2022-10-11T14:23:39.827Z,62.58
2022-10-11T14:28:46.578Z,62.34
2022-10-11T14:33:52.778Z,62.53
2022-10-11T14:38:59.305Z,62.38
2022-10-11T14:44:05.607Z,62.47
2022-10-11T14:49:15.886Z,62.49
2022-10-11T14:54:23.950Z,62.65
2022-10-11T14:59:34.441Z,62.74
2022-10-11T15:04:40.768Z,62.86
2022-10-11T15:09:47.160Z,62.51
2022-10-11T15:14:53.375Z,62.79
2022-10-11T15:19:59.549Z,62.82
2022-10-11T15:25:06.240Z,62.78
2022-10-11T15:30:17.557Z,62.88
2022-10-11T15:35:24.617Z,62.78
2022-10-11T15:40:34.087Z,62.73
2022-10-11T15:45:40.697Z,62.86
2022-10-11T15:50:47.668Z,63.10
2022-10-11T15:55:54.754Z,62.87
2022-10-11T16:01:02.508Z,62.92
2022-10-11T16:06:09.707Z,62.71
2022-10-11T16:11:16.107Z,63.06
2022-10-11T16:16:22.335Z,63.17
2022-10-11T16:21:28.554Z,63.13
2022-10-11T16:26:34.598Z,62.91
2022-10-11T16:31:41.131Z,63.19
2022-10-11T16:36:47.510Z,63.26
2022-10-11T16:41:53.721Z,63.00
2022-10-11T16:47:00.457Z,63.37
2022-10-11T16:52:07.026Z,63.46
2022-10-11T16:57:13.397Z,63.25
2022-10-11T17:02:20.630Z,63.30
2022-10-11T17:07:26.790Z,63.12
2022-10-11T17:12:35.741Z,63.10
2022-10-11T17:17:42.006Z,63.34
2022-10-11T17:22:48.159Z,63.40
2022-10-11T17:27:56.278Z,63.37
2022-10-11T17:33:02.557Z,63.48
2022-10-11T17:38:08.881Z,63.58
2022-10-11T17:43:16.057Z,63.45
2022-10-11T17:48:22.621Z,63.65
2022-10-11T17:53:28.907Z,63.53
2022-10-11T17:58:35.077Z,63.29
2022-10-11T18:03:41.796Z,63.67
2022-10-11T18:08:48.156Z,63.46
2022-10-11T18:13:55.127Z,63.50
2022-10-11T18:19:03.520Z,63.95
2022-10-11T18:24:11.212Z,63.76
2022-10-11T18:29:17.430Z,63.72
2022-10-11T18:34:24.476Z,63.76
2022-10-11T18:39:30.738Z,63.73
2022-10-11T18:44:37.088Z,63.68
2022-10-11T18:49:43.296Z,63.63
2022-10-11T18:54:49.857Z,63.42
2022-10-11T18:59:56.240Z,63.64
2022-10-11T19:05:02.544Z,63.80
2022-10-11T19:10:09.490Z,63.65
2022-10-11T19:15:16.887Z,63.47
2022-10-11T19:20:23.117Z,63.62
2022-10-11T19:25:29.227Z,63.91
2022-10-11T19:30:35.633Z,63.55
2022-10-11T19:35:42.850Z,63.70
2022-10-11T19:40:50.235Z,63.65
2022-10-11T19:46:02.256Z,63.71
2022-10-11T19:51:09.686Z,63.86
2022-10-11T19:56:16.785Z,63.58
2022-10-11T20:01:23.469Z,63.77
2022-10-11T20:06:33.456Z,63.73
2022-10-11T20:11:42.187Z,63.51
2022-10-11T20:16:50.798Z,63.71
2022-10-11T20:21:57.026Z,63.69
2022-10-11T20:27:03.476Z,63.64
2022-10-11T20:32:09.620Z,63.93
2022-10-11T20:37:15.696Z,63.58
2022-10-11T20:42:25.296Z,63.73
2022-10-11T20:47:34.089Z,63.61
2022-10-11T20:52:40.327Z,63.84
2022-10-11T20:57:46.514Z,63.87
2022-10-11T21:02:52.868Z,63.71
2022-10-11T21:07:59.130Z,63.67
2022-10-11T21:13:05.730Z,63.57
2022-10-11T21:18:12.797Z,63.59
2022-10-11T21:23:20.207Z,63.85
2022-10-11T21:28:26.594Z,63.73
2022-10-11T21:33:32.792Z,63.74
2022-10-11T21:38:39.010Z,63.84
2022-10-11T21:43:45.505Z,63.69
2022-10-11T21:48:51.988Z,63.73
2022-10-11T21:54:00.382Z,63.54
2022-10-11T21:59:11.032Z,63.77
2022-10-11T22:04:18.916Z,63.91
2022-10-11T22:09:25.437Z,63.85
2022-10-11T22:14:31.957Z,63.96
2022-10-11T22:19:38.186Z,63.64
2022-10-11T22:24:44.603Z,63.76
2022-10-11T22:29:50.837Z,64.09
2022-10-11T22:34:56.994Z,63.73
2022-10-11T22:40:03.676Z,63.90
2022-10-11T22:45:10.997Z,63.97
2022-10-11T22:50:17.107Z,63.85
2022-10-11T22:55:23.331Z,63.94
2022-10-11T23:00:29.526Z,63.91
2022-10-11T23:05:35.808Z,63.85
2022-10-11T23:10:42.136Z,63.86
2022-10-11T23:15:48.377Z,63.84
2022-10-11T23:20:54.696Z,63.93
2022-10-11T23:26:04.720Z,63.97
2022-10-11T23:31:12.246Z,63.71
2022-10-11T23:36:18.720Z,63.96
2022-10-11T23:41:25.794Z,64.03
2022-10-11T23:46:31.967Z,64.06
2022-10-11T23:51:38.146Z,63.77
2022-10-11T23:56:44.341Z,63.79
